Terminal Aerodrome Forecast
Issued by NWS

Home | Current Version | Previous Version | Text Only | Print | Product List | Glossary On
Versions: 1 2 3 4 5 6 7 8 9 10 11 12 13
000
FTUS44 KLIX 161516 AAA
TAFHUM
TAF AMD
KHUM 161516Z 1615/1712 05008KT P6SM OVC029
     FM161800 08008KT P6SM SCT025 BKN035
     FM170200 07007KT P6SM BKN030 BKN090
     FM170700 12008KT 5SM BR BKN012 BKN045
     FM171000 14007KT P6SM VCSH BKN010 BKN040=

USA.gov is the U.S. government's official web portal to all federal, state and local government web resources and services.